sensor_id;sensor_type;location;lat;lon;timestamp;P1;durP1;ratioP1;P2;durP2;ratioP2
48268;SDS011;34088;52.232;5.196;2023-08-30T00:01:21;9.17;;;7.27;;
48268;SDS011;34088;52.232;5.196;2023-08-30T00:06:12;10.53;;;7.67;;
48268;SDS011;34088;52.232;5.196;2023-08-30T00:08:37;7.65;;;6.53;;
48268;SDS011;34088;52.232;5.196;2023-08-30T00:13:29;9.90;;;7.40;;
48268;SDS011;34088;52.232;5.196;2023-08-30T00:15:56;9.38;;;7.20;;
48268;SDS011;34088;52.232;5.196;2023-08-30T00:33:09;9.83;;;8.13;;
48268;SDS011;34088;52.232;5.196;2023-08-30T00:37:59;12.57;;;8.67;;
48268;SDS011;34088;52.232;5.196;2023-08-30T00:42:50;12.68;;;8.43;;
48268;SDS011;34088;52.232;5.196;2023-08-30T00:47:41;10.55;;;8.45;;
48268;SDS011;34088;52.232;5.196;2023-08-30T00:52:33;10.65;;;8.43;;
48268;SDS011;34088;52.232;5.196;2023-08-30T00:57:23;10.35;;;8.40;;
48268;SDS011;34088;52.232;5.196;2023-08-30T01:02:16;11.50;;;9.02;;
48268;SDS011;34088;52.232;5.196;2023-08-30T01:07:07;11.73;;;9.35;;
48268;SDS011;34088;52.232;5.196;2023-08-30T01:12:19;13.02;;;9.38;;
48268;SDS011;34088;52.232;5.196;2023-08-30T01:17:19;12.00;;;9.23;;
48268;SDS011;34088;52.232;5.196;2023-08-30T01:19:51;10.55;;;8.77;;
48268;SDS011;34088;52.232;5.196;2023-08-30T01:22:43;13.30;;;9.27;;
48268;SDS011;34088;52.232;5.196;2023-08-30T01:30:10;11.10;;;9.27;;
48268;SDS011;34088;52.232;5.196;2023-08-30T01:32:36;12.00;;;9.75;;
48268;SDS011;34088;52.232;5.196;2023-08-30T01:35:03;13.98;;;10.43;;
48268;SDS011;34088;52.232;5.196;2023-08-30T01:37:30;11.20;;;9.35;;
48268;SDS011;34088;52.232;5.196;2023-08-30T01:39:57;12.57;;;10.30;;
48268;SDS011;34088;52.232;5.196;2023-08-30T01:44:49;12.80;;;10.18;;
48268;SDS011;34088;52.232;5.196;2023-08-30T01:47:16;14.18;;;10.60;;
48268;SDS011;34088;52.232;5.196;2023-08-30T01:49:43;15.38;;;9.95;;
48268;SDS011;34088;52.232;5.196;2023-08-30T01:52:09;12.10;;;9.57;;
48268;SDS011;34088;52.232;5.196;2023-08-30T01:57:01;13.68;;;10.50;;
48268;SDS011;34088;52.232;5.196;2023-08-30T02:01:51;11.17;;;9.23;;
48268;SDS011;34088;52.232;5.196;2023-08-30T02:06:42;12.33;;;9.73;;
48268;SDS011;34088;52.232;5.196;2023-08-30T02:12:04;13.13;;;10.10;;
48268;SDS011;34088;52.232;5.196;2023-08-30T02:14:35;12.65;;;9.95;;
48268;SDS011;34088;52.232;5.196;2023-08-30T02:17:03;13.65;;;9.88;;
48268;SDS011;34088;52.232;5.196;2023-08-30T02:19:30;12.35;;;9.45;;
48268;SDS011;34088;52.232;5.196;2023-08-30T02:24:21;12.70;;;10.13;;
48268;SDS011;34088;52.232;5.196;2023-08-30T02:26:47;12.35;;;10.52;;
48268;SDS011;34088;52.232;5.196;2023-08-30T02:31:38;12.98;;;10.00;;
48268;SDS011;34088;52.232;5.196;2023-08-30T02:36:28;13.32;;;9.40;;
48268;SDS011;34088;52.232;5.196;2023-08-30T02:41:19;11.27;;;9.30;;
48268;SDS011;34088;52.232;5.196;2023-08-30T02:46:09;12.57;;;9.33;;
48268;SDS011;34088;52.232;5.196;2023-08-30T02:51:00;13.13;;;9.50;;
48268;SDS011;34088;52.232;5.196;2023-08-30T02:53:25;12.63;;;9.60;;
48268;SDS011;34088;52.232;5.196;2023-08-30T02:58:16;15.18;;;9.65;;
48268;SDS011;34088;52.232;5.196;2023-08-30T03:03:06;14.73;;;10.20;;
48268;SDS011;34088;52.232;5.196;2023-08-30T03:07:57;15.35;;;11.02;;
48268;SDS011;34088;52.232;5.196;2023-08-30T03:12:48;13.95;;;10.90;;
48268;SDS011;34088;52.232;5.196;2023-08-30T03:17:39;15.13;;;11.13;;
48268;SDS011;34088;52.232;5.196;2023-08-30T03:22:33;14.48;;;10.82;;
48268;SDS011;34088;52.232;5.196;2023-08-30T03:24:58;16.63;;;11.07;;
48268;SDS011;34088;52.232;5.196;2023-08-30T03:29:49;16.40;;;11.93;;
48268;SDS011;34088;52.232;5.196;2023-08-30T03:34:43;14.80;;;11.50;;
48268;SDS011;34088;52.232;5.196;2023-08-30T03:37:09;18.58;;;12.32;;
48268;SDS011;34088;52.232;5.196;2023-08-30T03:41:59;17.10;;;12.50;;
48268;SDS011;34088;52.232;5.196;2023-08-30T03:46:50;22.63;;;13.37;;
48268;SDS011;34088;52.232;5.196;2023-08-30T03:51:40;15.23;;;12.63;;
48268;SDS011;34088;52.232;5.196;2023-08-30T03:56:31;18.95;;;13.45;;
48268;SDS011;34088;52.232;5.196;2023-08-30T04:01:21;20.73;;;14.73;;
48268;SDS011;34088;52.232;5.196;2023-08-30T04:06:12;20.73;;;14.13;;
48268;SDS011;34088;52.232;5.196;2023-08-30T04:11:02;17.30;;;13.53;;
48268;SDS011;34088;52.232;5.196;2023-08-30T04:15:53;17.27;;;14.53;;
48268;SDS011;34088;52.232;5.196;2023-08-30T04:20:44;19.77;;;14.93;;
48268;SDS011;34088;52.232;5.196;2023-08-30T04:23:10;21.13;;;15.38;;
48268;SDS011;34088;52.232;5.196;2023-08-30T04:28:01;19.02;;;14.85;;
48268;SDS011;34088;52.232;5.196;2023-08-30T04:32:52;17.17;;;14.00;;
48268;SDS011;34088;52.232;5.196;2023-08-30T04:37:43;19.35;;;15.13;;
48268;SDS011;34088;52.232;5.196;2023-08-30T04:42:37;20.42;;;14.43;;
48268;SDS011;34088;52.232;5.196;2023-08-30T04:45:03;19.25;;;14.82;;
48268;SDS011;34088;52.232;5.196;2023-08-30T04:47:29;18.88;;;14.00;;
48268;SDS011;34088;52.232;5.196;2023-08-30T04:52:20;20.90;;;15.07;;
48268;SDS011;34088;52.232;5.196;2023-08-30T04:57:11;19.48;;;14.65;;
48268;SDS011;34088;52.232;5.196;2023-08-30T04:59:39;21.40;;;14.57;;
48268;SDS011;34088;52.232;5.196;2023-08-30T05:04:30;21.83;;;14.45;;
48268;SDS011;34088;52.232;5.196;2023-08-30T05:09:21;19.30;;;14.65;;
48268;SDS011;34088;52.232;5.196;2023-08-30T05:11:49;19.38;;;14.38;;
48268;SDS011;34088;52.232;5.196;2023-08-30T05:16:40;19.10;;;13.70;;
48268;SDS011;34088;52.232;5.196;2023-08-30T05:21:31;18.27;;;13.33;;
48268;SDS011;34088;52.232;5.196;2023-08-30T05:26:21;17.50;;;13.05;;
48268;SDS011;34088;52.232;5.196;2023-08-30T05:31:12;19.47;;;13.27;;
48268;SDS011;34088;52.232;5.196;2023-08-30T05:36:02;16.17;;;12.60;;
48268;SDS011;34088;52.232;5.196;2023-08-30T05:40:53;18.37;;;12.20;;
48268;SDS011;34088;52.232;5.196;2023-08-30T05:45:44;17.63;;;11.70;;
48268;SDS011;34088;52.232;5.196;2023-08-30T05:50:34;16.23;;;11.93;;
48268;SDS011;34088;52.232;5.196;2023-08-30T05:55:25;17.73;;;11.77;;
48268;SDS011;34088;52.232;5.196;2023-08-30T06:00:16;18.13;;;11.70;;
48268;SDS011;34088;52.232;5.196;2023-08-30T06:05:07;18.50;;;12.30;;
48268;SDS011;34088;52.232;5.196;2023-08-30T06:09:58;17.27;;;12.23;;
48268;SDS011;34088;52.232;5.196;2023-08-30T06:14:51;17.23;;;12.68;;
48268;SDS011;34088;52.232;5.196;2023-08-30T06:17:17;22.83;;;14.15;;
48268;SDS011;34088;52.232;5.196;2023-08-30T06:19:44;20.67;;;14.73;;
48268;SDS011;34088;52.232;5.196;2023-08-30T06:22:10;19.17;;;14.45;;
48268;SDS011;34088;52.232;5.196;2023-08-30T06:27:01;20.90;;;15.37;;
48268;SDS011;34088;52.232;5.196;2023-08-30T06:31:52;22.77;;;15.05;;
48268;SDS011;34088;52.232;5.196;2023-08-30T06:36:42;22.25;;;15.40;;
48268;SDS011;34088;52.232;5.196;2023-08-30T06:41:33;22.53;;;16.27;;
48268;SDS011;34088;52.232;5.196;2023-08-30T06:46:23;24.05;;;15.77;;
48268;SDS011;34088;52.232;5.196;2023-08-30T06:51:14;26.17;;;16.10;;
48268;SDS011;34088;52.232;5.196;2023-08-30T06:56:04;19.83;;;15.17;;
48268;SDS011;34088;52.232;5.196;2023-08-30T07:00:56;22.17;;;15.63;;
48268;SDS011;34088;52.232;5.196;2023-08-30T07:03:22;22.25;;;16.27;;
48268;SDS011;34088;52.232;5.196;2023-08-30T07:08:14;22.20;;;15.55;;
48268;SDS011;34088;52.232;5.196;2023-08-30T07:10:39;22.65;;;16.13;;
48268;SDS011;34088;52.232;5.196;2023-08-30T07:15:35;23.15;;;17.60;;
48268;SDS011;34088;52.232;5.196;2023-08-30T07:18:02;25.30;;;17.30;;
48268;SDS011;34088;52.232;5.196;2023-08-30T07:20:28;22.73;;;16.27;;
48268;SDS011;34088;52.232;5.196;2023-08-30T07:25:19;21.45;;;16.33;;
48268;SDS011;34088;52.232;5.196;2023-08-30T07:30:10;23.80;;;15.70;;
48268;SDS011;34088;52.232;5.196;2023-08-30T07:35:02;23.58;;;16.55;;
48268;SDS011;34088;52.232;5.196;2023-08-30T07:39:54;22.67;;;15.73;;
48268;SDS011;34088;52.232;5.196;2023-08-30T07:44:45;20.73;;;15.55;;
48268;SDS011;34088;52.232;5.196;2023-08-30T07:49:35;20.87;;;14.93;;
48268;SDS011;34088;52.232;5.196;2023-08-30T07:54:26;20.67;;;15.20;;
48268;SDS011;34088;52.232;5.196;2023-08-30T07:59:16;20.45;;;14.63;;
48268;SDS011;34088;52.232;5.196;2023-08-30T08:04:07;16.52;;;12.55;;
48268;SDS011;34088;52.232;5.196;2023-08-30T08:08:57;15.57;;;12.15;;
48268;SDS011;34088;52.232;5.196;2023-08-30T08:13:48;15.00;;;10.82;;
48268;SDS011;34088;52.232;5.196;2023-08-30T08:18:38;13.50;;;9.77;;
48268;SDS011;34088;52.232;5.196;2023-08-30T08:23:29;10.63;;;8.50;;
48268;SDS011;34088;52.232;5.196;2023-08-30T08:28:23;12.20;;;8.60;;
48268;SDS011;34088;52.232;5.196;2023-08-30T08:33:16;10.75;;;7.75;;
48268;SDS011;34088;52.232;5.196;2023-08-30T08:35:42;12.85;;;8.80;;
48268;SDS011;34088;52.232;5.196;2023-08-30T08:40:36;10.97;;;8.13;;
48268;SDS011;34088;52.232;5.196;2023-08-30T08:43:03;11.63;;;8.10;;
48268;SDS011;34088;52.232;5.196;2023-08-30T08:45:29;11.27;;;8.80;;
48268;SDS011;34088;52.232;5.196;2023-08-30T08:47:59;11.07;;;7.90;;
48268;SDS011;34088;52.232;5.196;2023-08-30T08:52:51;12.75;;;8.63;;
48268;SDS011;34088;52.232;5.196;2023-08-30T08:55:17;11.05;;;8.30;;
48268;SDS011;34088;52.232;5.196;2023-08-30T09:00:09;11.40;;;8.75;;
48268;SDS011;34088;52.232;5.196;2023-08-30T09:05:00;12.57;;;8.00;;
48268;SDS011;34088;52.232;5.196;2023-08-30T09:07:27;10.93;;;7.88;;
48268;SDS011;34088;52.232;5.196;2023-08-30T09:09:54;11.88;;;9.35;;
48268;SDS011;34088;52.232;5.196;2023-08-30T09:14:53;10.93;;;8.77;;
48268;SDS011;34088;52.232;5.196;2023-08-30T09:17:20;12.65;;;8.70;;
48268;SDS011;34088;52.232;5.196;2023-08-30T09:22:10;11.07;;;9.50;;
48268;SDS011;34088;52.232;5.196;2023-08-30T09:27:04;11.73;;;8.93;;
48268;SDS011;34088;52.232;5.196;2023-08-30T09:31:56;10.10;;;8.98;;
48268;SDS011;34088;52.232;5.196;2023-08-30T09:36:47;14.05;;;10.90;;
48268;SDS011;34088;52.232;5.196;2023-08-30T09:39:15;14.20;;;11.27;;
48268;SDS011;34088;52.232;5.196;2023-08-30T09:44:10;14.80;;;12.35;;
48268;SDS011;34088;52.232;5.196;2023-08-30T09:46:45;15.00;;;12.23;;
48268;SDS011;34088;52.232;5.196;2023-08-30T09:49:14;15.52;;;12.73;;
48268;SDS011;34088;52.232;5.196;2023-08-30T09:56:36;15.40;;;12.80;;
48268;SDS011;34088;52.232;5.196;2023-08-30T09:59:02;15.52;;;13.48;;
48268;SDS011;34088;52.232;5.196;2023-08-30T10:01:28;14.15;;;12.30;;
48268;SDS011;34088;52.232;5.196;2023-08-30T10:06:21;16.35;;;14.60;;
48268;SDS011;34088;52.232;5.196;2023-08-30T10:08:49;18.02;;;15.00;;
48268;SDS011;34088;52.232;5.196;2023-08-30T10:11:18;18.38;;;14.65;;
48268;SDS011;34088;52.232;5.196;2023-08-30T10:16:09;15.50;;;13.73;;
48268;SDS011;34088;52.232;5.196;2023-08-30T10:18:40;14.90;;;11.55;;
48268;SDS011;34088;52.232;5.196;2023-08-30T10:21:08;12.38;;;9.95;;
48268;SDS011;34088;52.232;5.196;2023-08-30T10:23:37;10.25;;;9.10;;
48268;SDS011;34088;52.232;5.196;2023-08-30T10:26:04;10.68;;;8.75;;
48268;SDS011;34088;52.232;5.196;2023-08-30T10:28:31;10.10;;;6.57;;
48268;SDS011;34088;52.232;5.196;2023-08-30T10:30:59;8.98;;;6.25;;
48268;SDS011;34088;52.232;5.196;2023-08-30T10:33:24;9.60;;;4.47;;
48268;SDS011;34088;52.232;5.196;2023-08-30T10:35:50;9.43;;;4.15;;
48268;SDS011;34088;52.232;5.196;2023-08-30T10:40:52;7.40;;;3.92;;
48268;SDS011;34088;52.232;5.196;2023-08-30T10:43:17;7.45;;;4.30;;
48268;SDS011;34088;52.232;5.196;2023-08-30T10:46:03;7.30;;;3.80;;
48268;SDS011;34088;52.232;5.196;2023-08-30T10:48:35;6.47;;;3.20;;
48268;SDS011;34088;52.232;5.196;2023-08-30T10:51:01;8.40;;;3.40;;
48268;SDS011;34088;52.232;5.196;2023-08-30T10:53:29;8.13;;;3.35;;
48268;SDS011;34088;52.232;5.196;2023-08-30T10:56:10;8.55;;;3.15;;
48268;SDS011;34088;52.232;5.196;2023-08-30T10:58:42;9.80;;;3.35;;
48268;SDS011;34088;52.232;5.196;2023-08-30T11:01:11;10.05;;;3.38;;
48268;SDS011;34088;52.232;5.196;2023-08-30T11:03:40;7.80;;;3.03;;
48268;SDS011;34088;52.232;5.196;2023-08-30T11:06:06;11.48;;;3.90;;
48268;SDS011;34088;52.232;5.196;2023-08-30T11:08:32;8.27;;;3.90;;
48268;SDS011;34088;52.232;5.196;2023-08-30T11:11:04;7.70;;;3.95;;
48268;SDS011;34088;52.232;5.196;2023-08-30T11:13:31;10.48;;;3.75;;
48268;SDS011;34088;52.232;5.196;2023-08-30T11:16:00;12.23;;;3.65;;
48268;SDS011;34088;52.232;5.196;2023-08-30T11:18:26;10.30;;;3.63;;
48268;SDS011;34088;52.232;5.196;2023-08-30T11:21:01;9.50;;;3.50;;
48268;SDS011;34088;52.232;5.196;2023-08-30T11:23:27;8.52;;;3.42;;
48268;SDS011;34088;52.232;5.196;2023-08-30T11:25:52;9.07;;;3.67;;
48268;SDS011;34088;52.232;5.196;2023-08-30T11:28:21;12.77;;;4.13;;
48268;SDS011;34088;52.232;5.196;2023-08-30T11:30:48;8.68;;;3.47;;
48268;SDS011;34088;52.232;5.196;2023-08-30T11:33:13;9.88;;;3.72;;
48268;SDS011;34088;52.232;5.196;2023-08-30T11:35:42;10.80;;;3.78;;
48268;SDS011;34088;52.232;5.196;2023-08-30T11:38:08;8.63;;;2.88;;
48268;SDS011;34088;52.232;5.196;2023-08-30T11:40:34;13.95;;;3.40;;
48268;SDS011;34088;52.232;5.196;2023-08-30T11:42:59;12.05;;;2.90;;
48268;SDS011;34088;52.232;5.196;2023-08-30T11:45:27;10.13;;;3.10;;
48268;SDS011;34088;52.232;5.196;2023-08-30T11:47:53;10.80;;;3.05;;
48268;SDS011;34088;52.232;5.196;2023-08-30T11:50:18;11.10;;;2.90;;
48268;SDS011;34088;52.232;5.196;2023-08-30T11:52:45;10.52;;;3.05;;
48268;SDS011;34088;52.232;5.196;2023-08-30T11:55:11;13.20;;;2.78;;
48268;SDS011;34088;52.232;5.196;2023-08-30T11:57:37;8.68;;;2.70;;
48268;SDS011;34088;52.232;5.196;2023-08-30T12:00:10;10.30;;;3.00;;
48268;SDS011;34088;52.232;5.196;2023-08-30T12:02:36;9.07;;;2.20;;
48268;SDS011;34088;52.232;5.196;2023-08-30T12:05:02;9.85;;;2.63;;
48268;SDS011;34088;52.232;5.196;2023-08-30T12:07:27;13.60;;;3.20;;
48268;SDS011;34088;52.232;5.196;2023-08-30T12:09:52;12.60;;;3.00;;
48268;SDS011;34088;52.232;5.196;2023-08-30T12:12:28;11.15;;;2.95;;
48268;SDS011;34088;52.232;5.196;2023-08-30T12:14:54;10.95;;;2.75;;
48268;SDS011;34088;52.232;5.196;2023-08-30T12:17:21;9.85;;;2.72;;
48268;SDS011;34088;52.232;5.196;2023-08-30T12:19:46;10.63;;;2.97;;
48268;SDS011;34088;52.232;5.196;2023-08-30T12:22:11;8.68;;;2.22;;
48268;SDS011;34088;52.232;5.196;2023-08-30T12:24:43;10.90;;;2.50;;
48268;SDS011;34088;52.232;5.196;2023-08-30T12:27:09;8.50;;;2.70;;
48268;SDS011;34088;52.232;5.196;2023-08-30T12:29:35;7.38;;;2.50;;
48268;SDS011;34088;52.232;5.196;2023-08-30T12:32:01;10.23;;;2.63;;
48268;SDS011;34088;52.232;5.196;2023-08-30T12:34:26;9.80;;;2.42;;
48268;SDS011;34088;52.232;5.196;2023-08-30T12:36:51;7.00;;;2.22;;
48268;SDS011;34088;52.232;5.196;2023-08-30T12:39:17;9.38;;;2.30;;
48268;SDS011;34088;52.232;5.196;2023-08-30T12:41:42;7.78;;;2.15;;
48268;SDS011;34088;52.232;5.196;2023-08-30T12:44:07;10.05;;;2.78;;
48268;SDS011;34088;52.232;5.196;2023-08-30T12:46:33;9.50;;;2.42;;
48268;SDS011;34088;52.232;5.196;2023-08-30T12:48:58;11.00;;;2.65;;
48268;SDS011;34088;52.232;5.196;2023-08-30T12:51:24;10.60;;;2.15;;
48268;SDS011;34088;52.232;5.196;2023-08-30T12:53:49;8.15;;;2.33;;
48268;SDS011;34088;52.232;5.196;2023-08-30T12:56:14;10.00;;;2.38;;
48268;SDS011;34088;52.232;5.196;2023-08-30T12:58:39;9.90;;;2.40;;
48268;SDS011;34088;52.232;5.196;2023-08-30T13:01:05;8.65;;;2.30;;
48268;SDS011;34088;52.232;5.196;2023-08-30T13:03:30;11.82;;;2.30;;
48268;SDS011;34088;52.232;5.196;2023-08-30T13:05:55;8.40;;;2.30;;
48268;SDS011;34088;52.232;5.196;2023-08-30T13:08:20;11.70;;;2.65;;
48268;SDS011;34088;52.232;5.196;2023-08-30T13:10:46;11.65;;;3.00;;
48268;SDS011;34088;52.232;5.196;2023-08-30T13:13:11;10.65;;;2.30;;
48268;SDS011;34088;52.232;5.196;2023-08-30T13:15:36;9.68;;;2.95;;
48268;SDS011;34088;52.232;5.196;2023-08-30T13:18:01;9.95;;;2.58;;
48268;SDS011;34088;52.232;5.196;2023-08-30T13:20:27;5.13;;;1.98;;
48268;SDS011;34088;52.232;5.196;2023-08-30T13:22:52;10.38;;;2.38;;
48268;SDS011;34088;52.232;5.196;2023-08-30T13:25:17;6.28;;;1.80;;
48268;SDS011;34088;52.232;5.196;2023-08-30T13:27:43;6.35;;;1.77;;
48268;SDS011;34088;52.232;5.196;2023-08-30T13:30:08;8.00;;;1.95;;
48268;SDS011;34088;52.232;5.196;2023-08-30T13:32:34;5.90;;;1.90;;
48268;SDS011;34088;52.232;5.196;2023-08-30T13:35:00;8.10;;;2.13;;
48268;SDS011;34088;52.232;5.196;2023-08-30T13:37:25;12.88;;;2.63;;
48268;SDS011;34088;52.232;5.196;2023-08-30T13:39:52;6.53;;;1.95;;
48268;SDS011;34088;52.232;5.196;2023-08-30T13:42:19;7.70;;;2.03;;
48268;SDS011;34088;52.232;5.196;2023-08-30T13:44:44;7.50;;;1.92;;
48268;SDS011;34088;52.232;5.196;2023-08-30T13:47:10;9.93;;;2.10;;
48268;SDS011;34088;52.232;5.196;2023-08-30T13:49:35;6.88;;;1.90;;
48268;SDS011;34088;52.232;5.196;2023-08-30T13:52:02;7.72;;;1.77;;
48268;SDS011;34088;52.232;5.196;2023-08-30T13:54:27;10.15;;;2.20;;
48268;SDS011;34088;52.232;5.196;2023-08-30T13:56:56;15.63;;;3.28;;
48268;SDS011;34088;52.232;5.196;2023-08-30T13:59:22;9.55;;;1.98;;
48268;SDS011;34088;52.232;5.196;2023-08-30T14:01:48;9.45;;;2.25;;
48268;SDS011;34088;52.232;5.196;2023-08-30T14:04:13;8.85;;;2.60;;
48268;SDS011;34088;52.232;5.196;2023-08-30T14:06:39;8.43;;;2.25;;
48268;SDS011;34088;52.232;5.196;2023-08-30T14:09:04;8.68;;;2.30;;
48268;SDS011;34088;52.232;5.196;2023-08-30T14:11:33;6.00;;;2.10;;
48268;SDS011;34088;52.232;5.196;2023-08-30T14:13:59;6.82;;;1.80;;
48268;SDS011;34088;52.232;5.196;2023-08-30T14:16:26;7.22;;;1.95;;
48268;SDS011;34088;52.232;5.196;2023-08-30T14:18:51;8.13;;;2.20;;
48268;SDS011;34088;52.232;5.196;2023-08-30T14:21:17;7.28;;;2.45;;
48268;SDS011;34088;52.232;5.196;2023-08-30T14:23:42;7.05;;;2.30;;
48268;SDS011;34088;52.232;5.196;2023-08-30T14:26:07;9.88;;;2.55;;
48268;SDS011;34088;52.232;5.196;2023-08-30T14:28:37;5.68;;;1.85;;
48268;SDS011;34088;52.232;5.196;2023-08-30T14:31:09;6.15;;;1.98;;
48268;SDS011;34088;52.232;5.196;2023-08-30T14:33:36;8.10;;;1.85;;
48268;SDS011;34088;52.232;5.196;2023-08-30T14:36:01;6.82;;;1.50;;
48268;SDS011;34088;52.232;5.196;2023-08-30T14:38:27;3.58;;;1.23;;
48268;SDS011;34088;52.232;5.196;2023-08-30T14:40:57;6.85;;;1.50;;
48268;SDS011;34088;52.232;5.196;2023-08-30T14:43:23;5.43;;;1.63;;
48268;SDS011;34088;52.232;5.196;2023-08-30T14:45:49;7.00;;;1.75;;
48268;SDS011;34088;52.232;5.196;2023-08-30T14:48:14;6.63;;;1.48;;
48268;SDS011;34088;52.232;5.196;2023-08-30T14:50:40;8.55;;;1.75;;
48268;SDS011;34088;52.232;5.196;2023-08-30T14:53:05;5.50;;;1.60;;
48268;SDS011;34088;52.232;5.196;2023-08-30T14:55:31;5.53;;;1.55;;
48268;SDS011;34088;52.232;5.196;2023-08-30T14:57:57;7.30;;;1.88;;
48268;SDS011;34088;52.232;5.196;2023-08-30T15:00:22;5.32;;;1.58;;
48268;SDS011;34088;52.232;5.196;2023-08-30T15:02:49;4.05;;;1.20;;
48268;SDS011;34088;52.232;5.196;2023-08-30T15:05:14;6.43;;;1.40;;
48268;SDS011;34088;52.232;5.196;2023-08-30T15:07:39;6.68;;;2.00;;
48268;SDS011;34088;52.232;5.196;2023-08-30T15:10:05;5.68;;;1.63;;
48268;SDS011;34088;52.232;5.196;2023-08-30T15:12:30;5.35;;;1.40;;
48268;SDS011;34088;52.232;5.196;2023-08-30T15:14:55;8.77;;;1.63;;
48268;SDS011;34088;52.232;5.196;2023-08-30T15:17:21;6.65;;;1.98;;
48268;SDS011;34088;52.232;5.196;2023-08-30T15:19:46;7.63;;;1.77;;
48268;SDS011;34088;52.232;5.196;2023-08-30T15:22:11;6.32;;;1.85;;
48268;SDS011;34088;52.232;5.196;2023-08-30T15:24:36;6.20;;;1.92;;
48268;SDS011;34088;52.232;5.196;2023-08-30T15:27:03;6.90;;;1.63;;
48268;SDS011;34088;52.232;5.196;2023-08-30T15:29:28;9.38;;;1.50;;
48268;SDS011;34088;52.232;5.196;2023-08-30T15:31:53;4.32;;;1.70;;
48268;SDS011;34088;52.232;5.196;2023-08-30T15:34:19;11.88;;;2.55;;
48268;SDS011;34088;52.232;5.196;2023-08-30T15:36:44;6.15;;;1.70;;
48268;SDS011;34088;52.232;5.196;2023-08-30T15:39:09;5.50;;;1.50;;
48268;SDS011;34088;52.232;5.196;2023-08-30T15:41:37;6.47;;;1.95;;
48268;SDS011;34088;52.232;5.196;2023-08-30T15:44:02;5.72;;;1.33;;
48268;SDS011;34088;52.232;5.196;2023-08-30T15:46:28;6.22;;;1.85;;
48268;SDS011;34088;52.232;5.196;2023-08-30T15:48:53;6.47;;;1.42;;
48268;SDS011;34088;52.232;5.196;2023-08-30T15:51:20;7.07;;;1.48;;
48268;SDS011;34088;52.232;5.196;2023-08-30T15:53:45;6.95;;;1.75;;
48268;SDS011;34088;52.232;5.196;2023-08-30T15:56:10;10.10;;;2.10;;
48268;SDS011;34088;52.232;5.196;2023-08-30T15:58:36;7.82;;;1.83;;
48268;SDS011;34088;52.232;5.196;2023-08-30T16:01:04;10.38;;;2.00;;
48268;SDS011;34088;52.232;5.196;2023-08-30T16:03:30;6.47;;;2.05;;
48268;SDS011;34088;52.232;5.196;2023-08-30T16:05:55;6.72;;;1.58;;
48268;SDS011;34088;52.232;5.196;2023-08-30T16:08:21;6.60;;;1.95;;
48268;SDS011;34088;52.232;5.196;2023-08-30T16:10:51;9.80;;;1.80;;
48268;SDS011;34088;52.232;5.196;2023-08-30T16:13:18;9.38;;;1.60;;
48268;SDS011;34088;52.232;5.196;2023-08-30T16:15:44;6.57;;;1.48;;
48268;SDS011;34088;52.232;5.196;2023-08-30T16:18:09;5.38;;;1.35;;
48268;SDS011;34088;52.232;5.196;2023-08-30T16:20:34;6.40;;;1.55;;
48268;SDS011;34088;52.232;5.196;2023-08-30T16:22:59;7.88;;;1.45;;
48268;SDS011;34088;52.232;5.196;2023-08-30T16:25:25;8.27;;;1.60;;
48268;SDS011;34088;52.232;5.196;2023-08-30T16:27:52;5.18;;;1.52;;
48268;SDS011;34088;52.232;5.196;2023-08-30T16:30:17;5.72;;;1.45;;
48268;SDS011;34088;52.232;5.196;2023-08-30T16:32:43;8.07;;;1.55;;
48268;SDS011;34088;52.232;5.196;2023-08-30T16:35:08;9.02;;;1.35;;
48268;SDS011;34088;52.232;5.196;2023-08-30T16:37:34;6.70;;;1.48;;
48268;SDS011;34088;52.232;5.196;2023-08-30T16:39:59;5.07;;;1.40;;
48268;SDS011;34088;52.232;5.196;2023-08-30T16:42:24;7.70;;;1.40;;
48268;SDS011;34088;52.232;5.196;2023-08-30T16:44:50;5.10;;;1.30;;
48268;SDS011;34088;52.232;5.196;2023-08-30T16:47:15;5.00;;;1.38;;
48268;SDS011;34088;52.232;5.196;2023-08-30T16:49:40;6.03;;;1.40;;
48268;SDS011;34088;52.232;5.196;2023-08-30T16:52:05;6.22;;;1.45;;
48268;SDS011;34088;52.232;5.196;2023-08-30T16:54:31;6.57;;;1.50;;
48268;SDS011;34088;52.232;5.196;2023-08-30T16:56:56;8.43;;;1.52;;
48268;SDS011;34088;52.232;5.196;2023-08-30T16:59:21;4.57;;;1.40;;
48268;SDS011;34088;52.232;5.196;2023-08-30T17:01:47;6.88;;;1.38;;
48268;SDS011;34088;52.232;5.196;2023-08-30T17:04:12;6.03;;;1.60;;
48268;SDS011;34088;52.232;5.196;2023-08-30T17:06:39;8.85;;;1.88;;
48268;SDS011;34088;52.232;5.196;2023-08-30T17:09:05;7.85;;;1.83;;
48268;SDS011;34088;52.232;5.196;2023-08-30T17:13:57;5.95;;;1.50;;
48268;SDS011;34088;52.232;5.196;2023-08-30T17:16:23;6.75;;;1.50;;
48268;SDS011;34088;52.232;5.196;2023-08-30T17:18:49;5.68;;;1.40;;
48268;SDS011;34088;52.232;5.196;2023-08-30T17:21:14;7.47;;;1.38;;
48268;SDS011;34088;52.232;5.196;2023-08-30T17:23:40;4.68;;;1.23;;
48268;SDS011;34088;52.232;5.196;2023-08-30T17:26:05;4.15;;;1.33;;
48268;SDS011;34088;52.232;5.196;2023-08-30T17:28:31;5.78;;;1.30;;
48268;SDS011;34088;52.232;5.196;2023-08-30T17:30:57;7.75;;;1.63;;
48268;SDS011;34088;52.232;5.196;2023-08-30T17:33:22;8.07;;;1.90;;
48268;SDS011;34088;52.232;5.196;2023-08-30T17:35:47;9.43;;;1.73;;
48268;SDS011;34088;52.232;5.196;2023-08-30T17:38:13;6.65;;;1.50;;
48268;SDS011;34088;52.232;5.196;2023-08-30T17:40:38;5.63;;;1.60;;
48268;SDS011;34088;52.232;5.196;2023-08-30T17:45:31;6.38;;;1.50;;
48268;SDS011;34088;52.232;5.196;2023-08-30T17:47:57;8.43;;;1.70;;
48268;SDS011;34088;52.232;5.196;2023-08-30T17:50:26;11.02;;;2.70;;
48268;SDS011;34088;52.232;5.196;2023-08-30T17:52:51;6.10;;;2.17;;
48268;SDS011;34088;52.232;5.196;2023-08-30T17:55:17;9.43;;;1.58;;
48268;SDS011;34088;52.232;5.196;2023-08-30T17:57:42;6.63;;;1.73;;
48268;SDS011;34088;52.232;5.196;2023-08-30T18:00:08;3.95;;;1.88;;
48268;SDS011;34088;52.232;5.196;2023-08-30T18:02:34;10.38;;;1.75;;
48268;SDS011;34088;52.232;5.196;2023-08-30T18:05:01;6.82;;;1.30;;
48268;SDS011;34088;52.232;5.196;2023-08-30T18:07:30;7.28;;;1.90;;
48268;SDS011;34088;52.232;5.196;2023-08-30T18:09:55;8.10;;;2.88;;
48268;SDS011;34088;52.232;5.196;2023-08-30T18:12:20;4.60;;;1.42;;
48268;SDS011;34088;52.232;5.196;2023-08-30T18:14:46;5.20;;;1.23;;
48268;SDS011;34088;52.232;5.196;2023-08-30T18:17:12;7.50;;;1.55;;
48268;SDS011;34088;52.232;5.196;2023-08-30T18:19:37;6.43;;;1.45;;
48268;SDS011;34088;52.232;5.196;2023-08-30T18:22:03;5.78;;;1.50;;
48268;SDS011;34088;52.232;5.196;2023-08-30T18:24:29;6.88;;;1.73;;
48268;SDS011;34088;52.232;5.196;2023-08-30T18:26:55;6.28;;;1.33;;
48268;SDS011;34088;52.232;5.196;2023-08-30T18:29:21;5.70;;;1.25;;
48268;SDS011;34088;52.232;5.196;2023-08-30T18:31:48;7.05;;;1.55;;
48268;SDS011;34088;52.232;5.196;2023-08-30T18:34:15;4.50;;;1.40;;
48268;SDS011;34088;52.232;5.196;2023-08-30T18:36:40;5.45;;;1.27;;
48268;SDS011;34088;52.232;5.196;2023-08-30T18:39:08;6.03;;;1.70;;
48268;SDS011;34088;52.232;5.196;2023-08-30T18:41:33;4.13;;;1.30;;
48268;SDS011;34088;52.232;5.196;2023-08-30T18:43:59;6.20;;;1.45;;
48268;SDS011;34088;52.232;5.196;2023-08-30T18:46:24;7.18;;;2.05;;
48268;SDS011;34088;52.232;5.196;2023-08-30T18:48:50;7.15;;;1.50;;
48268;SDS011;34088;52.232;5.196;2023-08-30T18:51:16;7.30;;;1.60;;
48268;SDS011;34088;52.232;5.196;2023-08-30T18:53:46;7.45;;;1.60;;
48268;SDS011;34088;52.232;5.196;2023-08-30T18:56:11;7.07;;;1.45;;
48268;SDS011;34088;52.232;5.196;2023-08-30T18:58:37;6.10;;;1.45;;
48268;SDS011;34088;52.232;5.196;2023-08-30T19:01:04;6.78;;;1.70;;